Terminal Aerodrome Forecast
Issued by NWS

Home | Current Version | Previous Version | Text Only | Print | Product List | Glossary On
Versions: 1 2 3 4 5 6 7 8 9 10 11 12 13 14 15
000
FTUS45 KTFX 291100
TAFGTF
TAF
KGTF 291130Z 2912/3012 VRB06KT P6SM SCT200
     FM292000 19010KT P6SM SCT080
     FM300900 23009KT P6SM VCSH SCT060 BKN090=

USA.gov is the U.S. government's official web portal to all federal, state and local government web resources and services.